Weather observations for the past three days for
Marquette Sawyer Regional Airport
| Date | Time (edt) | Wind (mph) | Vis. (mi.) | Weather | Sky Cond. | Temperature (ºF) | Relative Humidity | Wind Chill (°F) | Heat Index (°F) | Pressure | Precipitation (in) | ||||||
|---|---|---|---|---|---|---|---|---|---|---|---|---|---|---|---|---|---|
| Air | Dwpt | 6 hour | altimeter (in) | sea level (mb) | 1 hr | 3 hr | 6 hr | ||||||||||
| Max. | Min. | ||||||||||||||||
| 05 | 13:45 | N 7 | 10.00 | Partly Cloudy | SCT031 | 73.4 | 60.8 | 65% | 30.11 | 0.0 | |||||||
| 05 | 12:45 | E 9 | 10.00 | Partly Cloudy | SCT040 | 71.6 | 60.8 | 69% | 30.11 | 0.0 | |||||||
| 05 | 11:45 | E 6 | 10.00 | A Few Clouds | FEW016 | 71.6 | 60.8 | 69% | 30.12 | 0.0 | |||||||
| 05 | 10:45 | NE 6 | 10.00 | Fair | CLR | 66.2 | 62.6 | 88% | 30.12 | 0.0 | |||||||
| 05 | 09:45 | NE 9 | 10.00 | Mostly Cloudy | BKN003 | 64.4 | 62.6 | 94% | 30.1 | 0.0 | |||||||
| 05 | 08:45 | NE 9 | 2.00 | Overcast | OVC001 | 62.6 | 62.6 | 100% | 30.08 | 0.0 | |||||||
| 05 | 07:45 | NE 7 | 0.19 | Fog | VV000 | 60.8 | 60.8 | 100% | 30.06 | 0.0 | |||||||
| 05 | 06:45 | NE 7 | 0.19 | Fog | VV000 | 60.8 | 60.8 | 100% | 30.05 | 0.0 | |||||||
| 05 | 05:58 | N 6 | 0.15 | Fog | VV000 | 60.8 | 60.8 | 100% | 30.06 | 0.0 | |||||||
| 05 | 05:38 | N 6 | 0.25 | Fog | BKN001 | 59 | 59 | 100% | 30.06 | 0.0 | |||||||
| 05 | 05:18 | N 5 | 0.15 | Fog | VV000 | 57.2 | 57.2 | 100% | 30.06 | 0.0 | |||||||
| 05 | 04:58 | N 6 | 0.75 | Fog/Mist | VV005 | 57.2 | 57.2 | 100% | 30.06 | 0.0 | |||||||
| 05 | 04:38 | N 5 | 10.00 | Fair | CLR | 57.2 | 57.2 | 100% | 30.06 | 0.0 | |||||||
| 05 | 04:18 | N 5 | 10.00 | Fair | CLR | 55.4 | 55.4 | 100% | 30.05 | 0.0 | |||||||
| 05 | 03:58 | NE 2 | 10.00 | Fair | CLR | 57.2 | 57.2 | 100% | 30.06 | 0.0 | |||||||
| 05 | 03:38 | NE 5 | 2.50 | Fog/Mist | CLR | 57.2 | 57.2 | 100% | 30.05 | 0.0 | |||||||
| 05 | 03:18 | N 6 | 2.00 | Fog/Mist | SCT060 | 59 | 59 | 100% | 30.06 | 0.0 | |||||||
| 05 | 02:58 | NE 6 | 10.00 | A Few Clouds | FEW060 | 59 | 59 | 100% | 30.06 | 0.0 | |||||||
| 05 | 02:38 | N 5 | 10.00 | A Few Clouds | FEW060 | 57.2 | 57.2 | 100% | 30.05 | 0.0 | |||||||
| 05 | 02:18 | N 3 | 10.00 | Fair | CLR | 59 | 59 | 100% | 30.05 | 0.0 | |||||||
| 05 | 01:58 | N 3 | 1.50 | Fog/Mist | CLR | 59 | 59 | 100% | 30.06 | 0.0 | |||||||
| 05 | 01:38 | N 3 | 0.25 | Fog | VV002 | 59 | 59 | 100% | 30.05 | 0.0 | |||||||
| 05 | 01:18 | N 3 | 0.15 | Fog | VV000 | 59 | 59 | 100% | 30.05 | 0.0 | |||||||
| 05 | 00:38 | N 7 | 0.15 | Fog | BKN001 | 60.8 | 60.8 | 100% | 30.04 | 0.0 | |||||||
| 05 | 00:18 | NE 8 | 0.75 | Fog/Mist | BKN001 | 60.8 | 60.8 | 100% | 30.04 | 0.0 | |||||||
| 04 | 23:58 | NE 8 | 10.00 | Fair | CLR | 62.6 | 60.8 | 94% | 30.04 | 0.0 | |||||||
| 04 | 23:38 | NE 5 | 10.00 | Fair | CLR | 60.8 | 60.8 | 100% | 30.04 | 0.0 | |||||||
| 04 | 23:18 | N 5 | 10.00 | Fair | CLR | 60.8 | 60.8 | 100% | 30.04 | 0.0 | |||||||
| 04 | 22:58 | N 5 | 9.00 | A Few Clouds | FEW070 | 60.8 | 60.8 | 100% | 30.04 | 0.0 | |||||||
| 04 | 22:38 | N 3 | 10.00 | Partly Cloudy | FEW046 SCT070 | 60.8 | 60.8 | 100% | 30.04 | 0.0 | |||||||
| 04 | 22:18 | NE 5 | 10.00 | Mostly Cloudy | SCT046 BKN070 | 62.6 | 62.6 | 100% | 30.03 | 0.0 | |||||||
| 04 | 21:45 | N 3 | 10.00 | Overcast | FEW043 OVC070 | 62.6 | 62.6 | 100% | 30.03 | 0.0 | |||||||
| 04 | 20:45 | NE 7 | 10.00 | Overcast | OVC042 | 64.4 | 62.6 | 94% | 30.02 | 0.0 | |||||||
| 04 | 19:45 | NE 8 | 10.00 | Overcast | FEW007 OVC036 | 66.2 | 64.4 | 94% | 30.02 | 0.0 | |||||||
| 04 | 18:45 | NE 8 | 10.00 | Overcast | SCT007 SCT014 OVC030 | 66.2 | 64.4 | 94% | 30.01 | 0.0 | |||||||
| 04 | 17:45 | NE 10 | 10.00 | Overcast | OVC007 | 66.2 | 64.4 | 94% | 30 | 0.0 | |||||||
| 04 | 16:45 | NE 12 | 10.00 | Overcast | BKN009 OVC017 | 68 | 64.4 | 88% | 30 | 0.0 | |||||||
| 04 | 15:45 | NE 7 | 10.00 | Overcast | BKN013 BKN018 OVC028 | 69.8 | 64.4 | 83% | 29.99 | 0.0 | |||||||
| 04 | 14:45 | E 3 | 10.00 | Overcast | SCT013 OVC026 | 68 | 62.6 | 83% | 29.99 | 0.0 | |||||||
| 04 | 13:45 | E 7 | 10.00 | Overcast | SCT011 SCT016 OVC024 | 68 | 60.8 | 78% | 30 | 0.0 | |||||||
| 04 | 12:45 | E 5 | 10.00 | Overcast | OVC022 | 66.2 | 62.6 | 88% | 30 | 0.0 | |||||||
| 04 | 11:52 | E 7 | 10.00 | Overcast | OVC018 | 66.2 | 62.6 | 88% | 29.99 | 0.0 | |||||||
| 04 | 10:52 | E 3 | 10.00 | Overcast | FEW006 BKN018 OVC027 | 64.4 | 62.6 | 94% | 29.99 | 0.0 | |||||||
| 04 | 09:52 | S 6 | 10.00 | Overcast | FEW005 BKN015 OVC080 | 62.6 | 62.6 | 100% | 29.98 | 0.0 | |||||||
| 04 | 08:52 | E 2 | 2.50 | Rain Fog/Mist | BKN025 BKN050 OVC090 | 60.8 | 60.8 | 100% | 30 | 0.0 | |||||||
| 04 | 07:52 | S 3 | 10.00 | Overcast | BKN080 OVC090 | 60.8 | 60.8 | 100% | 29.98 | 0.0 | |||||||
| 04 | 06:51 | S 5 | 10.00 | Mostly Cloudy | BKN080 | 59 | 59 | 100% | 29.96 | 0.0 | |||||||
| 04 | 05:58 | SE 5 | 10.00 | Mostly Cloudy | SCT004 BKN100 | 59 | 59 | 100% | 29.97 | 0.0 | |||||||
| 04 | 05:38 | E 5 | 10.00 | Overcast | OVC004 | 59 | 59 | 100% | 29.97 | 0.0 | |||||||
| 04 | 05:18 | E 5 | 10.00 | Overcast | BKN004 BKN036 OVC050 | 59 | 59 | 100% | 29.99 | 0.0 | |||||||
| 04 | 04:58 | NE 7 | 10.00 | Light Rain | SCT033 BKN044 BKN075 | 60.8 | 59 | 94% | 29.98 | 0.0 | |||||||
| 04 | 04:38 | E 5 | 6.00 | Light Rain Fog/Mist | BKN050 BKN065 BKN075 | 60.8 | 59 | 94% | 29.98 | 0.0 | |||||||
| 04 | 04:18 | Vrbl 3 | 4.00 | Rain Fog/Mist | SCT039 OVC050 | 60.8 | 60.8 | 100% | 30.01 | 0.0 | |||||||
| 04 | 03:58 | N 9 | 8.00 | Thunderstorm in Vicinity Rain | OVC039 | 60.8 | 60.8 | 100% | 30 | 0.0 | |||||||
| 04 | 03:38 | N 5 | 10.00 | Thunderstorm in Vicinity | OVC039 | 60.8 | 59 | 94% | 29.99 | 0.0 | |||||||
| 04 | 03:18 | NE 7 | 10.00 | Overcast | OVC037 | 60.8 | 59 | 94% | 29.99 | 0.0 | |||||||
| 04 | 02:58 | NE 6 | 10.00 | Overcast | OVC035 | 62.6 | 59 | 88% | 29.98 | 0.0 | |||||||
| 04 | 02:38 | E 7 | 10.00 | Thunderstorm in Vicinity | OVC035 | 62.6 | 59 | 88% | 29.96 | 0.0 | |||||||
| 04 | 02:18 | E 7 | 10.00 | Light Rain | BKN037 OVC065 | 62.6 | 59 | 88% | 29.97 | 0.0 | |||||||
| 04 | 01:58 | E 5 | 10.00 | Light Rain | SCT039 BKN065 OVC095 | 62.6 | 59 | 88% | 29.98 | 0.0 | |||||||
| 04 | 01:38 | E 5 | 2.50 | Heavy Rain Haze | BKN043 OVC070 | 62.6 | 59 | 88% | 29.99 | 0.0 | |||||||
| 04 | 01:18 | E 5 | 10.00 | Overcast | SCT043 OVC070 | 64.4 | 57.2 | 78% | 29.99 | 0.0 | |||||||
| 04 | 00:58 | E 7 | 10.00 | Overcast | OVC070 | 64.4 | 57.2 | 78% | 29.99 | 0.0 | |||||||
| 04 | 00:38 | E 8 | 10.00 | Overcast | BKN070 OVC085 | 64.4 | 57.2 | 78% | 29.99 | 0.0 | |||||||
| 04 | 00:18 | E 6 | 10.00 | Overcast | SCT070 OVC085 | 64.4 | 59 | 83% | 30 | 0.0 | |||||||
| 03 | 23:58 | E 6 | 10.00 | Overcast | SCT060 OVC085 | 64.4 | 59 | 83% | 30 | 0.0 | |||||||
| 03 | 23:38 | E 5 | 10.00 | Mostly Cloudy | SCT060 BKN085 | 64.4 | 59 | 83% | 30 | 0.0 | |||||||
| 03 | 23:18 | E 6 | 10.00 | Partly Cloudy | SCT085 | 64.4 | 59 | 83% | 29.99 | 0.0 | |||||||
| 03 | 22:58 | NE 6 | 10.00 | Mostly Cloudy | BKN075 | 64.4 | 59 | 83% | 30 | 0.0 | |||||||
| 03 | 22:38 | NE 5 | 10.00 | Overcast | FEW065 OVC075 | 62.6 | 59 | 88% | 30.01 | 0.0 | |||||||
| 03 | 22:18 | NE 5 | 10.00 | Overcast | FEW065 OVC075 | 64.4 | 59 | 83% | 30 | 0.0 | |||||||
| 03 | 21:45 | NW 3 | 10.00 | Partly Cloudy | SCT037 SCT075 | 62.6 | 60.8 | 94% | 30 | 0.0 | |||||||
| 03 | 20:45 | NE 7 | 10.00 | Partly Cloudy | SCT075 | 64.4 | 60.8 | 88% | 29.97 | 0.0 | |||||||
| 03 | 19:45 | NE 9 | 10.00 | Partly Cloudy | SCT075 | 68 | 59 | 73% | 29.97 | 0.0 | |||||||
| 03 | 18:45 | NE 14 | 10.00 | Partly Cloudy | SCT080 | 69.8 | 59 | 69% | 29.96 | 0.0 | |||||||
| 03 | 17:45 | N 14 | 10.00 | Partly Cloudy | SCT080 | 73.4 | 59 | 61% | 29.94 | 0.0 | |||||||
| 03 | 16:45 | NE 14 | 10.00 | Fair | CLR | 75.2 | 59 | 57% | 78 | 29.95 | 0.0 | ||||||
| 03 | 15:45 | E 10 | 10.00 | Partly Cloudy | SCT090 | 77 | 59 | 54% | 79 | 29.96 | 0.0 | ||||||
| 03 | 14:46 | E 9 | 10.00 | Fair | CLR | 77 | 57.2 | 51% | 79 | 29.97 | 0.0 | ||||||
| 03 | 13:45 | E 6 | 10.00 | A Few Clouds | FEW100 | 75.2 | 57.2 | 54% | 78 | 29.98 | 0.0 | ||||||
| 03 | 12:45 | E 5 | 10.00 | Fair | CLR | 71.6 | 55.4 | 57% | 29.99 | 0.0 | |||||||
| 03 | 11:46 | NE 6 | 10.00 | Fair | CLR | 71.6 | 53.6 | 53% | 29.99 | 0.0 | |||||||
| 03 | 10:47 | E 7 | 10.00 | Fair | CLR | 71.6 | 55.4 | 57% | 29.98 | 0.0 | |||||||
| 03 | 09:47 | SE 3 | 10.00 | Fair | CLR | 66.2 | 55.4 | 68% | 29.99 | 0.0 | |||||||
| 03 | 08:47 | NW 2 | 10.00 | Fair | CLR | 57.2 | 55.4 | 94% | 29.99 | 0.0 | |||||||
| 03 | 07:47 | N 2 | 10.00 | Fair | CLR | 51.8 | 50 | 94% | 29.98 | 0.0 | |||||||
| 03 | 06:48 | N 2 | 10.00 | Fair | CLR | 50 | 50 | 100% | 29.97 | 0.0 | |||||||
| 03 | 05:58 | N 2 | 10.00 | Fair | CLR | 53.6 | 51.8 | 94% | 29.97 | 0.0 | |||||||
| 03 | 05:38 | N 5 | 1.25 | Fog/Mist | CLR | 51.8 | 51.8 | 100% | 29.97 | 0.0 | |||||||
| 03 | 05:18 | N 2 | 10.00 | Fair | CLR | 51.8 | 50 | 94% | 29.97 | 0.0 | |||||||
| 03 | 04:58 | NW 2 | 10.00 | Fair | CLR | 53.6 | 51.8 | 94% | 29.97 | 0.0 | |||||||
| 03 | 04:38 | Vrbl 1 | 10.00 | Fair | CLR | 53.6 | 53.6 | 100% | 29.97 | 0.0 | |||||||
| 03 | 04:18 | NW 2 | 10.00 | Fair | CLR | 53.6 | 51.8 | 94% | 29.97 | 0.0 | |||||||
| 03 | 03:58 | NW 2 | 10.00 | Fair | CLR | 53.6 | 53.6 | 100% | 29.97 | 0.0 | |||||||
| 03 | 03:38 | N 3 | 10.00 | Fair | CLR | 53.6 | 53.6 | 100% | 29.96 | 0.0 | |||||||
| 03 | 03:18 | N 1 | 10.00 | Fair | CLR | 53.6 | 53.6 | 100% | 29.97 | 0.0 | |||||||
| 03 | 02:58 | W 2 | 10.00 | Fair | CLR | 55.4 | 55.4 | 100% | 29.97 | 0.0 | |||||||
| 03 | 02:38 | W 1 | 10.00 | Fair | CLR | 53.6 | 53.6 | 100% | 29.97 | 0.0 | |||||||
| 03 | 02:18 | N 2 | 10.00 | Fair | CLR | 55.4 | 55.4 | 100% | 29.97 | 0.0 | |||||||
| 03 | 01:58 | NW 2 | 5.00 | Fog/Mist | CLR | 55.4 | 55.4 | 100% | 29.96 | 0.0 | |||||||
| 03 | 01:38 | W 2 | 10.00 | Fair | CLR | 55.4 | 55.4 | 100% | 29.96 | 0.0 | |||||||
| 03 | 01:18 | NW 2 | 10.00 | Fair | CLR | 57.2 | 57.2 | 100% | 29.96 | 0.0 | |||||||
| 03 | 00:58 | Calm | 10.00 | Fair | CLR | 57.2 | 55.4 | 94% | 29.96 | 0.0 | |||||||
| 03 | 00:38 | NW 2 | 10.00 | Fair | CLR | 57.2 | 57.2 | 100% | 29.96 | 0.0 | |||||||
| 03 | 00:18 | NW 3 | 10.00 | Fair | CLR | 57.2 | 57.2 | 100% | 29.96 | 0.0 | |||||||
| 02 | 23:58 | NW 2 | 10.00 | Fair | CLR | 57.2 | 57.2 | 100% | 29.96 | 0.0 | |||||||
| 02 | 23:38 | NW 3 | 10.00 | Fair | CLR | 57.2 | 57.2 | 100% | 29.96 | 0.0 | |||||||
| 02 | 23:18 | NW 2 | 10.00 | Fair | CLR | 59 | 57.2 | 94% | 29.96 | 0.0 | |||||||
| 02 | 22:58 | NW 2 | 10.00 | Fair | CLR | 59 | 59 | 100% | 29.95 | 0.0 | |||||||
| 02 | 22:38 | N 3 | 10.00 | Fair | CLR | 60.8 | 59 | 94% | 29.95 | 0.0 | |||||||
| 02 | 22:18 | NE 2 | 10.00 | Fair | CLR | 60.8 | 59 | 94% | 29.95 | 0.0 | |||||||
| 02 | 21:47 | N 6 | 10.00 | Fair | CLR | 60.8 | 60.8 | 100% | 29.94 | 0.0 | |||||||
| 02 | 20:47 | N 8 | 10.00 | Fair | CLR | 64.4 | 59 | 83% | 29.93 | 0.0 | |||||||
| 02 | 19:50 | NE 8 | 10.00 | Fair | CLR | 69.8 | 59 | 69% | 29.93 | 0.0 | |||||||
| 02 | 18:47 | NE 9 | 10.00 | Fair | CLR | 73.4 | 59 | 61% | 29.92 | 0.0 | |||||||
| 02 | 17:47 | NE 12 | 10.00 | A Few Clouds | FEW060 | 75.2 | 59 | 57% | 78 | 29.91 | 0.0 | ||||||
| 02 | 16:47 | E 10 | 10.00 | Mostly Cloudy | BKN060 | 77 | 59 | 54% | 79 | 29.91 | 0.0 | ||||||
| 02 | 15:47 | NE 12 | 10.00 | Fair | CLR | 78.8 | 60.8 | 54% | 80 | 29.92 | 0.0 | ||||||
| 02 | 14:47 | NE 10 | 10.00 | Fair | CLR | 78.8 | 59 | 51% | 80 | 29.92 | 0.0 | ||||||
| Date | Time (edt) | Wind (mph) | Vis. (mi.) | Weather | Sky Cond. | Air | Dwpt | Max. | Min. | Relative Humidity | Wind Chill (°F) | Heat Index (°F) | altimeter (in) | sea level (mb) | 1 hr | 3 hr | 6 hr |
| 6 hour | |||||||||||||||||
| Temperature (ºF) | Pressure | Precipitation (in) | |||||||||||||||